sensor_id;sensor_type;location;lat;lon;timestamp;temperature;humidity
48535;DHT22;34323;52.022;5.686;2023-09-19T00:02:04;22.60;99.90
48535;DHT22;34323;52.022;5.686;2023-09-19T00:04:33;22.50;99.90
48535;DHT22;34323;52.022;5.686;2023-09-19T00:06:59;22.50;99.90
48535;DHT22;34323;52.022;5.686;2023-09-19T00:09:25;22.40;99.90
48535;DHT22;34323;52.022;5.686;2023-09-19T00:11:53;22.40;99.90
48535;DHT22;34323;52.022;5.686;2023-09-19T00:14:19;22.30;99.90
48535;DHT22;34323;52.022;5.686;2023-09-19T00:16:45;22.30;99.90
48535;DHT22;34323;52.022;5.686;2023-09-19T00:19:11;22.30;99.90
48535;DHT22;34323;52.022;5.686;2023-09-19T00:21:38;22.40;99.90
48535;DHT22;34323;52.022;5.686;2023-09-19T00:24:06;22.40;99.90
48535;DHT22;34323;52.022;5.686;2023-09-19T00:26:32;22.40;99.90
48535;DHT22;34323;52.022;5.686;2023-09-19T00:29:00;22.50;99.90
48535;DHT22;34323;52.022;5.686;2023-09-19T00:31:33;22.60;99.90
48535;DHT22;34323;52.022;5.686;2023-09-19T00:33:59;22.50;99.90
48535;DHT22;34323;52.022;5.686;2023-09-19T00:36:32;22.40;99.90
48535;DHT22;34323;52.022;5.686;2023-09-19T00:38:59;22.20;99.90
48535;DHT22;34323;52.022;5.686;2023-09-19T00:41:25;22.10;99.90
48535;DHT22;34323;52.022;5.686;2023-09-19T00:43:50;22.20;99.90
48535;DHT22;34323;52.022;5.686;2023-09-19T00:46:19;22.30;99.90
48535;DHT22;34323;52.022;5.686;2023-09-19T00:48:45;22.30;99.90
48535;DHT22;34323;52.022;5.686;2023-09-19T00:51:12;22.30;99.90
48535;DHT22;34323;52.022;5.686;2023-09-19T00:53:45;22.30;99.90
48535;DHT22;34323;52.022;5.686;2023-09-19T00:56:12;22.30;99.90
48535;DHT22;34323;52.022;5.686;2023-09-19T00:58:38;22.30;99.90
48535;DHT22;34323;52.022;5.686;2023-09-19T01:01:04;22.40;99.90
48535;DHT22;34323;52.022;5.686;2023-09-19T01:03:33;22.30;99.90
48535;DHT22;34323;52.022;5.686;2023-09-19T01:05:59;22.20;99.90
48535;DHT22;34323;52.022;5.686;2023-09-19T01:08:26;22.00;99.90
48535;DHT22;34323;52.022;5.686;2023-09-19T01:11:00;22.00;99.90
48535;DHT22;34323;52.022;5.686;2023-09-19T01:13:44;22.00;99.90
48535;DHT22;34323;52.022;5.686;2023-09-19T01:22:11;22.10;99.90
48535;DHT22;34323;52.022;5.686;2023-09-19T01:30:14;21.60;99.90
48535;DHT22;34323;52.022;5.686;2023-09-19T01:32:42;21.60;99.90
48535;DHT22;34323;52.022;5.686;2023-09-19T01:35:09;21.60;99.90
48535;DHT22;34323;52.022;5.686;2023-09-19T01:37:38;21.70;99.90
48535;DHT22;34323;52.022;5.686;2023-09-19T01:40:08;21.80;99.90
48535;DHT22;34323;52.022;5.686;2023-09-19T01:42:58;21.90;99.90
48535;DHT22;34323;52.022;5.686;2023-09-19T01:45:44;21.80;99.90
48535;DHT22;34323;52.022;5.686;2023-09-19T01:51:06;21.60;99.90
48535;DHT22;34323;52.022;5.686;2023-09-19T01:53:36;21.30;99.90
48535;DHT22;34323;52.022;5.686;2023-09-19T01:56:08;21.30;99.90
48535;DHT22;34323;52.022;5.686;2023-09-19T01:58:42;21.30;99.90
48535;DHT22;34323;52.022;5.686;2023-09-19T02:01:13;21.30;99.90
48535;DHT22;34323;52.022;5.686;2023-09-19T02:03:41;21.30;99.90
48535;DHT22;34323;52.022;5.686;2023-09-19T02:06:17;21.10;99.90
48535;DHT22;34323;52.022;5.686;2023-09-19T02:08:44;20.80;99.90
48535;DHT22;34323;52.022;5.686;2023-09-19T02:11:11;20.90;99.90
48535;DHT22;34323;52.022;5.686;2023-09-19T02:13:38;21.00;99.90
48535;DHT22;34323;52.022;5.686;2023-09-19T02:16:04;21.00;99.90
48535;DHT22;34323;52.022;5.686;2023-09-19T02:18:30;20.90;99.90
48535;DHT22;34323;52.022;5.686;2023-09-19T02:20:56;21.00;99.90
48535;DHT22;34323;52.022;5.686;2023-09-19T02:23:24;21.00;99.90
48535;DHT22;34323;52.022;5.686;2023-09-19T02:25:59;21.00;99.90
48535;DHT22;34323;52.022;5.686;2023-09-19T02:28:30;20.80;99.90
48535;DHT22;34323;52.022;5.686;2023-09-19T02:30:57;20.70;99.90
48535;DHT22;34323;52.022;5.686;2023-09-19T02:33:23;20.60;99.90
48535;DHT22;34323;52.022;5.686;2023-09-19T02:35:49;20.50;99.90
48535;DHT22;34323;52.022;5.686;2023-09-19T02:38:15;20.50;99.90
48535;DHT22;34323;52.022;5.686;2023-09-19T02:40:46;20.60;99.90
48535;DHT22;34323;52.022;5.686;2023-09-19T02:43:12;20.60;99.90
48535;DHT22;34323;52.022;5.686;2023-09-19T02:45:37;20.40;99.90
48535;DHT22;34323;52.022;5.686;2023-09-19T02:48:04;20.40;99.90
48535;DHT22;34323;52.022;5.686;2023-09-19T02:50:30;20.20;99.90
48535;DHT22;34323;52.022;5.686;2023-09-19T02:52:55;19.90;99.90
48535;DHT22;34323;52.022;5.686;2023-09-19T02:55:21;19.90;99.90
48535;DHT22;34323;52.022;5.686;2023-09-19T02:57:48;19.90;99.90
48535;DHT22;34323;52.022;5.686;2023-09-19T03:00:15;20.10;99.90
48535;DHT22;34323;52.022;5.686;2023-09-19T03:02:41;20.20;99.90
48535;DHT22;34323;52.022;5.686;2023-09-19T03:05:08;20.10;99.90
48535;DHT22;34323;52.022;5.686;2023-09-19T03:07:36;20.20;99.90
48535;DHT22;34323;52.022;5.686;2023-09-19T03:10:05;20.20;99.90
48535;DHT22;34323;52.022;5.686;2023-09-19T03:12:31;20.10;99.90
48535;DHT22;34323;52.022;5.686;2023-09-19T03:14:59;20.00;99.90
48535;DHT22;34323;52.022;5.686;2023-09-19T03:17:25;20.00;99.90
48535;DHT22;34323;52.022;5.686;2023-09-19T03:19:51;20.00;99.90
48535;DHT22;34323;52.022;5.686;2023-09-19T03:22:17;19.70;99.90
48535;DHT22;34323;52.022;5.686;2023-09-19T03:24:43;19.70;99.90
48535;DHT22;34323;52.022;5.686;2023-09-19T03:27:10;19.80;99.90
48535;DHT22;34323;52.022;5.686;2023-09-19T03:29:36;19.80;99.90
48535;DHT22;34323;52.022;5.686;2023-09-19T03:32:02;19.90;99.90
48535;DHT22;34323;52.022;5.686;2023-09-19T03:34:29;20.00;99.90
48535;DHT22;34323;52.022;5.686;2023-09-19T03:36:54;20.00;99.90
48535;DHT22;34323;52.022;5.686;2023-09-19T03:39:21;19.90;99.90
48535;DHT22;34323;52.022;5.686;2023-09-19T03:41:46;20.00;99.90
48535;DHT22;34323;52.022;5.686;2023-09-19T03:44:12;19.90;99.90
48535;DHT22;34323;52.022;5.686;2023-09-19T03:46:38;19.90;99.90
48535;DHT22;34323;52.022;5.686;2023-09-19T03:49:04;19.90;99.90
48535;DHT22;34323;52.022;5.686;2023-09-19T03:51:29;20.00;99.90
48535;DHT22;34323;52.022;5.686;2023-09-19T03:53:55;19.90;99.90
48535;DHT22;34323;52.022;5.686;2023-09-19T03:56:21;19.80;99.90
48535;DHT22;34323;52.022;5.686;2023-09-19T03:58:47;19.60;99.90
48535;DHT22;34323;52.022;5.686;2023-09-19T04:01:13;19.60;99.90
48535;DHT22;34323;52.022;5.686;2023-09-19T04:03:39;19.60;99.90
48535;DHT22;34323;52.022;5.686;2023-09-19T04:06:14;19.70;99.90
48535;DHT22;34323;52.022;5.686;2023-09-19T04:08:40;19.70;99.90
48535;DHT22;34323;52.022;5.686;2023-09-19T04:11:06;19.80;99.90
48535;DHT22;34323;52.022;5.686;2023-09-19T04:13:32;19.70;99.90
48535;DHT22;34323;52.022;5.686;2023-09-19T04:15:58;19.90;99.90
48535;DHT22;34323;52.022;5.686;2023-09-19T04:18:24;19.90;99.90
48535;DHT22;34323;52.022;5.686;2023-09-19T04:20:50;19.90;99.90
48535;DHT22;34323;52.022;5.686;2023-09-19T04:23:16;20.00;99.90
48535;DHT22;34323;52.022;5.686;2023-09-19T04:25:42;19.90;99.90
48535;DHT22;34323;52.022;5.686;2023-09-19T04:28:08;19.80;99.90
48535;DHT22;34323;52.022;5.686;2023-09-19T04:30:37;19.60;99.90
48535;DHT22;34323;52.022;5.686;2023-09-19T04:33:03;19.50;99.90
48535;DHT22;34323;52.022;5.686;2023-09-19T04:35:29;19.60;99.90
48535;DHT22;34323;52.022;5.686;2023-09-19T04:37:57;19.50;99.90
48535;DHT22;34323;52.022;5.686;2023-09-19T04:40:23;19.50;99.90
48535;DHT22;34323;52.022;5.686;2023-09-19T04:42:53;19.50;99.90
48535;DHT22;34323;52.022;5.686;2023-09-19T04:45:25;19.50;99.90
48535;DHT22;34323;52.022;5.686;2023-09-19T04:47:55;19.70;99.90
48535;DHT22;34323;52.022;5.686;2023-09-19T04:50:21;19.60;99.90
48535;DHT22;34323;52.022;5.686;2023-09-19T04:52:51;19.70;99.90
48535;DHT22;34323;52.022;5.686;2023-09-19T04:55:18;19.60;99.90
48535;DHT22;34323;52.022;5.686;2023-09-19T04:57:49;19.60;99.90
48535;DHT22;34323;52.022;5.686;2023-09-19T05:00:17;19.50;99.90
48535;DHT22;34323;52.022;5.686;2023-09-19T05:02:44;19.60;99.90
48535;DHT22;34323;52.022;5.686;2023-09-19T05:05:10;19.50;99.90
48535;DHT22;34323;52.022;5.686;2023-09-19T05:07:41;19.40;99.90
48535;DHT22;34323;52.022;5.686;2023-09-19T05:10:08;19.50;99.90
48535;DHT22;34323;52.022;5.686;2023-09-19T05:12:34;19.50;99.90
48535;DHT22;34323;52.022;5.686;2023-09-19T05:15:02;19.50;99.90
48535;DHT22;34323;52.022;5.686;2023-09-19T05:17:28;19.60;99.90
48535;DHT22;34323;52.022;5.686;2023-09-19T05:19:54;19.50;99.90
48535;DHT22;34323;52.022;5.686;2023-09-19T05:22:20;19.40;99.90
48535;DHT22;34323;52.022;5.686;2023-09-19T05:24:46;19.20;99.90
48535;DHT22;34323;52.022;5.686;2023-09-19T05:27:14;19.20;99.90
48535;DHT22;34323;52.022;5.686;2023-09-19T05:29:43;19.20;99.90
48535;DHT22;34323;52.022;5.686;2023-09-19T05:32:10;19.20;99.90
48535;DHT22;34323;52.022;5.686;2023-09-19T05:34:37;19.30;99.90
48535;DHT22;34323;52.022;5.686;2023-09-19T05:37:04;19.10;99.90
48535;DHT22;34323;52.022;5.686;2023-09-19T05:39:32;19.10;99.90
48535;DHT22;34323;52.022;5.686;2023-09-19T05:41:58;19.30;99.90
48535;DHT22;34323;52.022;5.686;2023-09-19T05:44:25;19.30;99.90
48535;DHT22;34323;52.022;5.686;2023-09-19T05:46:51;19.30;99.90
48535;DHT22;34323;52.022;5.686;2023-09-19T05:49:19;19.20;99.90
48535;DHT22;34323;52.022;5.686;2023-09-19T05:51:47;19.10;99.90
48535;DHT22;34323;52.022;5.686;2023-09-19T05:54:12;19.20;99.90
48535;DHT22;34323;52.022;5.686;2023-09-19T05:56:38;19.00;99.90
48535;DHT22;34323;52.022;5.686;2023-09-19T05:59:04;19.20;99.90
48535;DHT22;34323;52.022;5.686;2023-09-19T06:01:30;19.50;99.90
48535;DHT22;34323;52.022;5.686;2023-09-19T06:03:58;19.60;99.90
48535;DHT22;34323;52.022;5.686;2023-09-19T06:06:26;19.60;99.90
48535;DHT22;34323;52.022;5.686;2023-09-19T06:08:51;19.80;99.90
48535;DHT22;34323;52.022;5.686;2023-09-19T06:11:17;19.90;99.90
48535;DHT22;34323;52.022;5.686;2023-09-19T06:13:46;19.70;99.90
48535;DHT22;34323;52.022;5.686;2023-09-19T06:16:12;19.80;99.90
48535;DHT22;34323;52.022;5.686;2023-09-19T06:18:38;19.80;99.90
48535;DHT22;34323;52.022;5.686;2023-09-19T06:21:05;19.70;99.90
48535;DHT22;34323;52.022;5.686;2023-09-19T06:23:34;19.80;99.90
48535;DHT22;34323;52.022;5.686;2023-09-19T06:26:00;19.70;99.90
48535;DHT22;34323;52.022;5.686;2023-09-19T06:28:26;19.40;99.90
48535;DHT22;34323;52.022;5.686;2023-09-19T06:30:54;19.40;99.90
48535;DHT22;34323;52.022;5.686;2023-09-19T06:33:20;19.50;99.90
48535;DHT22;34323;52.022;5.686;2023-09-19T06:35:47;19.50;99.90
48535;DHT22;34323;52.022;5.686;2023-09-19T06:38:13;19.60;99.90
48535;DHT22;34323;52.022;5.686;2023-09-19T06:40:41;19.80;99.90
48535;DHT22;34323;52.022;5.686;2023-09-19T06:43:10;19.90;99.90
48535;DHT22;34323;52.022;5.686;2023-09-19T06:45:36;20.00;99.90
48535;DHT22;34323;52.022;5.686;2023-09-19T06:48:02;19.70;99.90
48535;DHT22;34323;52.022;5.686;2023-09-19T06:50:28;19.60;99.90
48535;DHT22;34323;52.022;5.686;2023-09-19T06:52:56;19.70;99.90
48535;DHT22;34323;52.022;5.686;2023-09-19T06:55:24;19.70;99.90
48535;DHT22;34323;52.022;5.686;2023-09-19T06:57:53;19.80;99.90
48535;DHT22;34323;52.022;5.686;2023-09-19T07:00:20;19.80;99.90
48535;DHT22;34323;52.022;5.686;2023-09-19T07:03:04;19.90;99.90
48535;DHT22;34323;52.022;5.686;2023-09-19T07:05:36;20.10;99.90
48535;DHT22;34323;52.022;5.686;2023-09-19T07:08:04;20.30;99.90
48535;DHT22;34323;52.022;5.686;2023-09-19T07:10:32;20.50;99.90
48535;DHT22;34323;52.022;5.686;2023-09-19T07:13:04;20.50;99.90
48535;DHT22;34323;52.022;5.686;2023-09-19T07:15:40;20.30;99.90
48535;DHT22;34323;52.022;5.686;2023-09-19T07:18:15;20.20;99.90
48535;DHT22;34323;52.022;5.686;2023-09-19T07:20:45;19.90;99.90
48535;DHT22;34323;52.022;5.686;2023-09-19T07:23:18;20.10;99.90
48535;DHT22;34323;52.022;5.686;2023-09-19T07:25:45;20.10;99.90
48535;DHT22;34323;52.022;5.686;2023-09-19T07:28:12;20.10;99.90
48535;DHT22;34323;52.022;5.686;2023-09-19T07:30:38;19.90;99.90
48535;DHT22;34323;52.022;5.686;2023-09-19T07:33:05;19.90;99.90
48535;DHT22;34323;52.022;5.686;2023-09-19T07:35:32;20.00;99.90
48535;DHT22;34323;52.022;5.686;2023-09-19T07:37:57;20.00;99.90
48535;DHT22;34323;52.022;5.686;2023-09-19T07:40:27;19.80;99.90
48535;DHT22;34323;52.022;5.686;2023-09-19T07:42:57;19.70;99.90
48535;DHT22;34323;52.022;5.686;2023-09-19T07:45:27;19.50;99.90
48535;DHT22;34323;52.022;5.686;2023-09-19T07:47:53;19.60;99.90
48535;DHT22;34323;52.022;5.686;2023-09-19T07:50:20;19.90;99.90
48535;DHT22;34323;52.022;5.686;2023-09-19T07:52:49;20.10;99.90
48535;DHT22;34323;52.022;5.686;2023-09-19T07:55:17;20.00;99.90
48535;DHT22;34323;52.022;5.686;2023-09-19T07:57:43;19.90;99.90
48535;DHT22;34323;52.022;5.686;2023-09-19T08:00:10;19.90;99.90
48535;DHT22;34323;52.022;5.686;2023-09-19T08:02:37;20.00;99.90
48535;DHT22;34323;52.022;5.686;2023-09-19T08:05:09;20.00;99.90
48535;DHT22;34323;52.022;5.686;2023-09-19T08:07:36;19.90;99.90
48535;DHT22;34323;52.022;5.686;2023-09-19T08:10:04;19.90;99.90
48535;DHT22;34323;52.022;5.686;2023-09-19T08:12:30;20.20;99.90
48535;DHT22;34323;52.022;5.686;2023-09-19T08:14:56;20.20;99.90
48535;DHT22;34323;52.022;5.686;2023-09-19T08:17:22;20.60;99.90
48535;DHT22;34323;52.022;5.686;2023-09-19T08:19:50;20.60;99.90
48535;DHT22;34323;52.022;5.686;2023-09-19T08:22:19;20.70;99.90
48535;DHT22;34323;52.022;5.686;2023-09-19T08:24:45;20.30;99.90
48535;DHT22;34323;52.022;5.686;2023-09-19T08:27:13;20.20;99.90
48535;DHT22;34323;52.022;5.686;2023-09-19T08:29:39;20.40;99.90
48535;DHT22;34323;52.022;5.686;2023-09-19T08:32:05;20.50;99.90
48535;DHT22;34323;52.022;5.686;2023-09-19T08:34:31;20.60;99.90
48535;DHT22;34323;52.022;5.686;2023-09-19T08:37:00;20.50;99.90
48535;DHT22;34323;52.022;5.686;2023-09-19T08:39:26;20.60;99.90
48535;DHT22;34323;52.022;5.686;2023-09-19T08:42:02;20.70;99.90
48535;DHT22;34323;52.022;5.686;2023-09-19T08:44:28;20.80;99.90
48535;DHT22;34323;52.022;5.686;2023-09-19T08:47:05;20.60;99.90
48535;DHT22;34323;52.022;5.686;2023-09-19T08:52:20;20.70;99.90
48535;DHT22;34323;52.022;5.686;2023-09-19T08:54:49;21.00;99.90
48535;DHT22;34323;52.022;5.686;2023-09-19T08:57:17;20.90;99.90
48535;DHT22;34323;52.022;5.686;2023-09-19T08:59:48;20.70;99.90
48535;DHT22;34323;52.022;5.686;2023-09-19T09:02:18;20.30;99.90
48535;DHT22;34323;52.022;5.686;2023-09-19T09:04:45;20.10;99.90
48535;DHT22;34323;52.022;5.686;2023-09-19T09:07:13;20.30;99.90
48535;DHT22;34323;52.022;5.686;2023-09-19T09:09:40;20.70;99.90
48535;DHT22;34323;52.022;5.686;2023-09-19T09:12:13;20.80;99.90
48535;DHT22;34323;52.022;5.686;2023-09-19T09:14:46;21.00;99.90
48535;DHT22;34323;52.022;5.686;2023-09-19T09:17:15;21.10;99.90
48535;DHT22;34323;52.022;5.686;2023-09-19T09:19:43;20.90;99.90
48535;DHT22;34323;52.022;5.686;2023-09-19T09:22:10;20.90;99.90
48535;DHT22;34323;52.022;5.686;2023-09-19T09:24:37;21.30;99.90
48535;DHT22;34323;52.022;5.686;2023-09-19T09:27:05;21.30;99.90
48535;DHT22;34323;52.022;5.686;2023-09-19T09:32:19;21.60;99.90
48535;DHT22;34323;52.022;5.686;2023-09-19T09:34:56;21.40;99.90
48535;DHT22;34323;52.022;5.686;2023-09-19T09:37:23;21.40;99.90
48535;DHT22;34323;52.022;5.686;2023-09-19T09:40:01;21.40;99.90
48535;DHT22;34323;52.022;5.686;2023-09-19T09:42:42;21.40;99.90
48535;DHT22;34323;52.022;5.686;2023-09-19T09:45:22;21.70;99.90
48535;DHT22;34323;52.022;5.686;2023-09-19T09:48:03;21.60;99.90
48535;DHT22;34323;52.022;5.686;2023-09-19T09:50:33;21.60;99.90
48535;DHT22;34323;52.022;5.686;2023-09-19T09:53:30;21.40;99.90
48535;DHT22;34323;52.022;5.686;2023-09-19T09:56:01;21.30;99.90
48535;DHT22;34323;52.022;5.686;2023-09-19T09:58:32;21.40;99.90
48535;DHT22;34323;52.022;5.686;2023-09-19T10:00:59;21.70;99.90
48535;DHT22;34323;52.022;5.686;2023-09-19T10:06:12;22.20;99.90
48535;DHT22;34323;52.022;5.686;2023-09-19T10:09:07;22.30;99.90
48535;DHT22;34323;52.022;5.686;2023-09-19T10:11:46;22.60;99.90
48535;DHT22;34323;52.022;5.686;2023-09-19T10:14:15;22.80;99.90
48535;DHT22;34323;52.022;5.686;2023-09-19T10:16:46;22.80;99.90
48535;DHT22;34323;52.022;5.686;2023-09-19T10:19:30;22.80;99.90
48535;DHT22;34323;52.022;5.686;2023-09-19T10:22:01;23.10;99.90
48535;DHT22;34323;52.022;5.686;2023-09-19T10:24:28;23.20;99.90
48535;DHT22;34323;52.022;5.686;2023-09-19T10:26:55;23.10;99.90
48535;DHT22;34323;52.022;5.686;2023-09-19T10:29:21;23.20;99.90
48535;DHT22;34323;52.022;5.686;2023-09-19T10:31:48;23.30;99.90
48535;DHT22;34323;52.022;5.686;2023-09-19T10:34:17;23.40;99.90
48535;DHT22;34323;52.022;5.686;2023-09-19T10:36:46;23.10;99.90
48535;DHT22;34323;52.022;5.686;2023-09-19T10:39:16;23.20;99.90
48535;DHT22;34323;52.022;5.686;2023-09-19T10:41:50;23.10;99.90
48535;DHT22;34323;52.022;5.686;2023-09-19T10:44:26;23.10;99.90
48535;DHT22;34323;52.022;5.686;2023-09-19T10:46:54;23.40;99.90
48535;DHT22;34323;52.022;5.686;2023-09-19T10:49:21;23.70;99.90
48535;DHT22;34323;52.022;5.686;2023-09-19T10:51:50;23.70;99.90
48535;DHT22;34323;52.022;5.686;2023-09-19T10:54:20;23.60;99.90
48535;DHT22;34323;52.022;5.686;2023-09-19T10:56:53;23.30;99.90
48535;DHT22;34323;52.022;5.686;2023-09-19T10:59:20;22.90;99.90
48535;DHT22;34323;52.022;5.686;2023-09-19T11:01:55;22.80;99.90
48535;DHT22;34323;52.022;5.686;2023-09-19T11:04:29;22.80;99.90
48535;DHT22;34323;52.022;5.686;2023-09-19T11:07:12;22.70;99.90
48535;DHT22;34323;52.022;5.686;2023-09-19T11:14:58;23.50;99.90
48535;DHT22;34323;52.022;5.686;2023-09-19T11:30:46;23.60;99.90
48535;DHT22;34323;52.022;5.686;2023-09-19T11:33:18;23.60;99.90
48535;DHT22;34323;52.022;5.686;2023-09-19T11:49:26;23.70;99.90
48535;DHT22;34323;52.022;5.686;2023-09-19T11:51:56;23.80;99.90
48535;DHT22;34323;52.022;5.686;2023-09-19T11:54:23;23.50;99.90
48535;DHT22;34323;52.022;5.686;2023-09-19T11:56:52;23.50;99.90
48535;DHT22;34323;52.022;5.686;2023-09-19T11:59:30;23.50;99.90
48535;DHT22;34323;52.022;5.686;2023-09-19T12:02:06;23.90;99.90
48535;DHT22;34323;52.022;5.686;2023-09-19T12:04:40;23.60;99.90
48535;DHT22;34323;52.022;5.686;2023-09-19T12:07:10;23.30;99.90
48535;DHT22;34323;52.022;5.686;2023-09-19T12:09:46;23.30;99.90
48535;DHT22;34323;52.022;5.686;2023-09-19T12:12:20;23.80;99.90
48535;DHT22;34323;52.022;5.686;2023-09-19T12:14:50;24.10;99.90
48535;DHT22;34323;52.022;5.686;2023-09-19T12:17:19;24.20;99.90
48535;DHT22;34323;52.022;5.686;2023-09-19T12:19:49;24.40;99.90
48535;DHT22;34323;52.022;5.686;2023-09-19T12:22:15;24.70;99.90
48535;DHT22;34323;52.022;5.686;2023-09-19T12:24:43;24.50;99.90
48535;DHT22;34323;52.022;5.686;2023-09-19T12:27:10;24.50;99.90
48535;DHT22;34323;52.022;5.686;2023-09-19T12:29:49;24.50;99.90
48535;DHT22;34323;52.022;5.686;2023-09-19T12:32:15;24.60;99.90
48535;DHT22;34323;52.022;5.686;2023-09-19T12:34:53;24.70;99.90
48535;DHT22;34323;52.022;5.686;2023-09-19T12:37:20;24.60;99.90
48535;DHT22;34323;52.022;5.686;2023-09-19T12:39:49;24.40;99.90
48535;DHT22;34323;52.022;5.686;2023-09-19T12:42:19;24.10;99.90
48535;DHT22;34323;52.022;5.686;2023-09-19T12:44:53;23.50;99.90
48535;DHT22;34323;52.022;5.686;2023-09-19T12:47:23;23.30;99.90
48535;DHT22;34323;52.022;5.686;2023-09-19T12:52:40;23.40;99.90
48535;DHT22;34323;52.022;5.686;2023-09-19T12:55:06;23.60;99.90
48535;DHT22;34323;52.022;5.686;2023-09-19T12:57:36;23.80;99.90
48535;DHT22;34323;52.022;5.686;2023-09-19T13:00:03;23.80;99.90
48535;DHT22;34323;52.022;5.686;2023-09-19T13:02:31;23.70;99.90
48535;DHT22;34323;52.022;5.686;2023-09-19T13:04:58;23.70;99.90
48535;DHT22;34323;52.022;5.686;2023-09-19T13:07:45;23.60;99.90
48535;DHT22;34323;52.022;5.686;2023-09-19T13:10:12;23.40;99.90
48535;DHT22;34323;52.022;5.686;2023-09-19T13:12:43;23.50;99.90
48535;DHT22;34323;52.022;5.686;2023-09-19T13:15:15;23.70;99.90
48535;DHT22;34323;52.022;5.686;2023-09-19T13:17:49;23.90;99.90
48535;DHT22;34323;52.022;5.686;2023-09-19T13:20:25;23.90;99.90
48535;DHT22;34323;52.022;5.686;2023-09-19T13:22:53;23.60;99.90
48535;DHT22;34323;52.022;5.686;2023-09-19T13:25:24;23.30;99.90
48535;DHT22;34323;52.022;5.686;2023-09-19T13:27:53;23.40;99.90
48535;DHT22;34323;52.022;5.686;2023-09-19T13:30:22;23.20;99.90
48535;DHT22;34323;52.022;5.686;2023-09-19T13:32:49;23.20;99.90
48535;DHT22;34323;52.022;5.686;2023-09-19T13:35:15;23.00;99.90
48535;DHT22;34323;52.022;5.686;2023-09-19T13:37:42;23.10;99.90
48535;DHT22;34323;52.022;5.686;2023-09-19T13:40:12;23.40;99.90
48535;DHT22;34323;52.022;5.686;2023-09-19T13:42:39;23.70;99.90
48535;DHT22;34323;52.022;5.686;2023-09-19T13:45:06;23.60;99.90
48535;DHT22;34323;52.022;5.686;2023-09-19T13:47:36;23.60;99.90
48535;DHT22;34323;52.022;5.686;2023-09-19T13:50:04;23.30;99.90
48535;DHT22;34323;52.022;5.686;2023-09-19T13:52:30;23.20;99.90
48535;DHT22;34323;52.022;5.686;2023-09-19T13:54:57;23.50;99.90
48535;DHT22;34323;52.022;5.686;2023-09-19T13:57:24;23.40;99.90
48535;DHT22;34323;52.022;5.686;2023-09-19T13:59:50;23.70;99.90
48535;DHT22;34323;52.022;5.686;2023-09-19T14:02:17;23.70;99.90
48535;DHT22;34323;52.022;5.686;2023-09-19T14:04:48;23.90;99.90
48535;DHT22;34323;52.022;5.686;2023-09-19T14:07:15;24.20;99.90
48535;DHT22;34323;52.022;5.686;2023-09-19T14:09:41;24.10;99.90
48535;DHT22;34323;52.022;5.686;2023-09-19T14:12:07;24.40;99.90
48535;DHT22;34323;52.022;5.686;2023-09-19T14:14:33;24.40;99.90
48535;DHT22;34323;52.022;5.686;2023-09-19T14:16:59;24.30;99.90
48535;DHT22;34323;52.022;5.686;2023-09-19T14:19:29;24.10;99.90
48535;DHT22;34323;52.022;5.686;2023-09-19T14:21:55;24.10;99.90
48535;DHT22;34323;52.022;5.686;2023-09-19T14:24:21;23.90;99.90
48535;DHT22;34323;52.022;5.686;2023-09-19T14:26:48;24.10;99.90
48535;DHT22;34323;52.022;5.686;2023-09-19T14:29:15;24.00;99.90
48535;DHT22;34323;52.022;5.686;2023-09-19T14:31:41;24.10;99.90
48535;DHT22;34323;52.022;5.686;2023-09-19T14:34:08;24.40;99.90
48535;DHT22;34323;52.022;5.686;2023-09-19T14:36:36;24.10;99.90
48535;DHT22;34323;52.022;5.686;2023-09-19T14:39:02;23.80;99.90
48535;DHT22;34323;52.022;5.686;2023-09-19T14:41:28;23.90;99.90
48535;DHT22;34323;52.022;5.686;2023-09-19T14:43:56;24.10;99.90
48535;DHT22;34323;52.022;5.686;2023-09-19T14:46:22;24.10;99.90
48535;DHT22;34323;52.022;5.686;2023-09-19T14:48:52;23.90;99.90
48535;DHT22;34323;52.022;5.686;2023-09-19T14:51:18;23.90;99.90
48535;DHT22;34323;52.022;5.686;2023-09-19T14:53:45;23.80;99.90
48535;DHT22;34323;52.022;5.686;2023-09-19T14:56:12;23.70;99.90
48535;DHT22;34323;52.022;5.686;2023-09-19T14:58:43;23.70;99.90
48535;DHT22;34323;52.022;5.686;2023-09-19T15:01:10;23.80;99.90
48535;DHT22;34323;52.022;5.686;2023-09-19T15:03:37;23.60;99.90
48535;DHT22;34323;52.022;5.686;2023-09-19T15:06:06;23.70;99.90
48535;DHT22;34323;52.022;5.686;2023-09-19T15:08:33;23.70;99.90
48535;DHT22;34323;52.022;5.686;2023-09-19T15:11:04;23.70;99.90
48535;DHT22;34323;52.022;5.686;2023-09-19T15:13:31;23.60;99.90
48535;DHT22;34323;52.022;5.686;2023-09-19T15:16:01;23.70;99.90
48535;DHT22;34323;52.022;5.686;2023-09-19T15:18:28;23.70;99.90
48535;DHT22;34323;52.022;5.686;2023-09-19T15:20:56;23.60;99.90
48535;DHT22;34323;52.022;5.686;2023-09-19T15:23:22;23.60;99.90
48535;DHT22;34323;52.022;5.686;2023-09-19T15:25:49;23.90;99.90
48535;DHT22;34323;52.022;5.686;2023-09-19T15:28:15;23.90;99.90
48535;DHT22;34323;52.022;5.686;2023-09-19T15:30:41;23.60;99.90
48535;DHT22;34323;52.022;5.686;2023-09-19T15:33:07;23.80;99.90
48535;DHT22;34323;52.022;5.686;2023-09-19T15:35:32;23.90;99.90
48535;DHT22;34323;52.022;5.686;2023-09-19T15:37:58;24.10;99.90
48535;DHT22;34323;52.022;5.686;2023-09-19T15:40:26;24.10;99.90
48535;DHT22;34323;52.022;5.686;2023-09-19T15:42:54;24.20;99.90
48535;DHT22;34323;52.022;5.686;2023-09-19T15:45:19;24.20;99.90
48535;DHT22;34323;52.022;5.686;2023-09-19T15:47:45;24.00;99.90
48535;DHT22;34323;52.022;5.686;2023-09-19T15:50:11;23.90;99.90
48535;DHT22;34323;52.022;5.686;2023-09-19T15:52:41;23.90;99.90
48535;DHT22;34323;52.022;5.686;2023-09-19T15:55:08;23.60;99.90
48535;DHT22;34323;52.022;5.686;2023-09-19T15:57:37;23.40;99.90
48535;DHT22;34323;52.022;5.686;2023-09-19T16:00:04;23.30;99.90
48535;DHT22;34323;52.022;5.686;2023-09-19T16:02:35;23.30;99.90
48535;DHT22;34323;52.022;5.686;2023-09-19T16:05:02;23.40;99.90
48535;DHT22;34323;52.022;5.686;2023-09-19T16:07:31;23.50;99.90
48535;DHT22;34323;52.022;5.686;2023-09-19T16:09:57;23.50;99.90
48535;DHT22;34323;52.022;5.686;2023-09-19T16:12:25;23.50;99.90
48535;DHT22;34323;52.022;5.686;2023-09-19T16:14:51;23.50;99.90
48535;DHT22;34323;52.022;5.686;2023-09-19T16:17:17;23.70;99.90
48535;DHT22;34323;52.022;5.686;2023-09-19T16:19:43;23.80;99.90
48535;DHT22;34323;52.022;5.686;2023-09-19T16:22:10;23.40;99.90
48535;DHT22;34323;52.022;5.686;2023-09-19T16:24:36;23.20;99.90
48535;DHT22;34323;52.022;5.686;2023-09-19T16:27:02;23.10;99.90
48535;DHT22;34323;52.022;5.686;2023-09-19T16:29:28;22.90;99.90
48535;DHT22;34323;52.022;5.686;2023-09-19T16:31:54;22.70;99.90
48535;DHT22;34323;52.022;5.686;2023-09-19T16:34:20;22.60;99.90
48535;DHT22;34323;52.022;5.686;2023-09-19T16:36:46;22.90;99.90